createdAt,value
2023-05-08T00:00:05.282Z,8.52
2023-05-08T00:02:31.996Z,8.05
2023-05-08T00:04:58.997Z,7.75
2023-05-08T00:07:25.717Z,8.85
2023-05-08T00:09:52.262Z,8.50
2023-05-08T00:12:18.842Z,8.02
2023-05-08T00:14:45.427Z,8.00
2023-05-08T00:17:12.663Z,7.78
2023-05-08T00:19:39.244Z,8.10
2023-05-08T00:22:05.841Z,8.02
2023-05-08T00:24:32.421Z,6.88
2023-05-08T00:26:59.038Z,7.97
2023-05-08T00:29:25.637Z,8.20
2023-05-08T00:31:52.519Z,8.45
2023-05-08T00:34:19.131Z,8.15
2023-05-08T00:36:45.775Z,7.50
2023-05-08T00:39:12.639Z,7.72
2023-05-08T00:41:39.316Z,7.05
2023-05-08T00:44:05.897Z,7.53
2023-05-08T00:46:32.732Z,7.35
2023-05-08T00:48:59.790Z,7.28
2023-05-08T00:51:26.991Z,7.45
2023-05-08T00:53:53.744Z,7.45
2023-05-08T00:56:21.322Z,7.38
2023-05-08T00:58:48.247Z,6.63
2023-05-08T01:01:16.030Z,6.93
2023-05-08T01:03:43.726Z,6.80
2023-05-08T01:06:10.556Z,6.50
2023-05-08T01:08:37.129Z,7.35
2023-05-08T01:11:29.183Z,6.90
2023-05-08T01:14:28.096Z,6.63
2023-05-08T01:17:12.278Z,6.45
2023-05-08T01:20:00.328Z,6.68
2023-05-08T01:22:42.074Z,6.45
2023-05-08T01:25:20.064Z,7.35
2023-05-08T01:28:21.123Z,6.95
2023-05-08T01:31:28.366Z,6.07
2023-05-08T01:34:11.400Z,6.37
2023-05-08T01:36:40.854Z,6.45
2023-05-08T01:39:14.080Z,7.50
2023-05-08T01:41:53.367Z,7.15
2023-05-08T01:44:21.816Z,6.40
2023-05-08T01:46:50.725Z,6.82
2023-05-08T01:49:57.083Z,6.35
2023-05-08T01:52:50.649Z,6.72
2023-05-08T01:55:29.139Z,6.65
2023-05-08T06:09:29.156Z,8.35
2023-05-08T06:11:55.740Z,9.18
2023-05-08T06:14:22.328Z,9.13
2023-05-08T06:16:49.010Z,8.98
2023-05-08T06:19:15.579Z,8.85
2023-05-08T06:21:42.261Z,9.10
2023-05-08T06:24:09.251Z,9.07
2023-05-08T06:26:35.881Z,9.00
2023-05-08T06:29:02.497Z,8.57
2023-05-08T06:31:29.169Z,9.35
2023-05-08T06:33:56.065Z,9.05
2023-05-08T06:36:23.069Z,9.10
2023-05-08T06:38:50.203Z,8.98
2023-05-08T06:41:17.239Z,8.75
2023-05-08T06:43:44.342Z,7.75
2023-05-08T06:46:11.533Z,8.15
2023-05-08T06:48:38.438Z,7.78
2023-05-08T06:51:05.291Z,8.00
2023-05-08T06:53:32.412Z,7.57
2023-05-08T06:55:59.338Z,7.78
2023-05-08T06:58:26.237Z,8.73
2023-05-08T07:00:53.317Z,8.30
2023-05-08T07:03:20.264Z,7.63
2023-05-08T07:05:47.045Z,7.70
2023-05-08T07:08:13.765Z,8.48
2023-05-08T07:10:40.581Z,7.25
2023-05-08T07:13:07.305Z,7.07
2023-05-08T07:15:34.129Z,8.75
2023-05-08T07:18:01.272Z,7.15
2023-05-08T07:20:28.431Z,9.73
2023-05-08T07:22:55.038Z,7.63
2023-05-08T07:25:21.697Z,8.90
2023-05-08T07:27:48.356Z,8.15
2023-05-08T07:30:15.286Z,8.88
2023-05-08T07:32:42.081Z,8.02
2023-05-08T07:35:10.951Z,8.02
2023-05-08T07:37:41.551Z,7.82
2023-05-08T07:40:09.124Z,7.97
2023-05-08T07:42:42.491Z,8.60
2023-05-08T07:45:11.461Z,8.10
2023-05-08T07:47:39.502Z,8.68
2023-05-08T07:50:06.741Z,7.88
2023-05-08T07:52:33.436Z,7.82
2023-05-08T07:55:00.115Z,8.38
2023-05-08T07:57:26.967Z,7.47
2023-05-08T07:59:53.573Z,8.30
2023-05-08T08:02:20.222Z,7.43
2023-05-08T08:04:46.936Z,8.05
2023-05-08T08:07:13.718Z,7.63
2023-05-08T08:09:40.372Z,8.20
2023-05-08T08:12:07.198Z,7.68
2023-05-08T08:14:34.405Z,7.63
2023-05-08T08:17:01.521Z,8.38
2023-05-08T08:19:28.261Z,7.57
2023-05-08T08:21:54.886Z,7.43
2023-05-08T08:24:21.606Z,7.80
2023-05-08T08:26:48.338Z,7.45
2023-05-08T08:29:15.150Z,6.95
2023-05-08T08:31:41.919Z,7.60
2023-05-08T08:34:08.598Z,8.13
2023-05-08T08:36:35.309Z,7.10
2023-05-08T08:39:01.923Z,8.70
2023-05-08T08:41:28.562Z,7.45
2023-05-08T08:43:55.486Z,7.30
2023-05-08T08:46:25.363Z,8.15
2023-05-08T08:48:54.595Z,7.93
2023-05-08T08:51:44.299Z,6.88
2023-05-08T08:54:13.837Z,6.50
2023-05-08T08:56:44.343Z,6.28
2023-05-08T08:59:12.230Z,6.07
2023-05-08T09:01:40.036Z,6.57
2023-05-08T09:04:07.402Z,5.90
2023-05-08T09:06:38.157Z,6.05
2023-05-08T09:09:08.451Z,7.80
2023-05-08T09:11:36.424Z,5.95
2023-05-08T09:14:03.538Z,5.97
2023-05-08T09:16:30.254Z,7.60
2023-05-08T09:18:56.853Z,5.68
2023-05-08T09:21:23.545Z,5.40
2023-05-08T09:23:56.856Z,5.65
2023-05-08T09:26:37.730Z,6.43
2023-05-08T09:29:13.010Z,5.35
2023-05-08T09:31:48.866Z,5.00
2023-05-08T09:34:33.313Z,4.85
2023-05-08T09:37:05.940Z,5.00
2023-05-08T09:39:32.666Z,4.85
2023-05-08T09:42:03.920Z,4.63
2023-05-08T09:45:02.572Z,6.07
2023-05-08T09:47:29.192Z,4.75
2023-05-08T09:50:16.692Z,4.60
2023-05-08T09:52:47.095Z,4.55
2023-05-08T09:55:13.640Z,5.45
2023-05-08T09:57:53.928Z,5.30
2023-05-08T10:00:20.920Z,4.88
2023-05-08T10:02:59.788Z,5.03
2023-05-08T10:05:35.734Z,4.30
2023-05-08T10:08:19.296Z,4.53
2023-05-08T10:10:46.131Z,4.50
2023-05-08T10:13:13.086Z,4.55
2023-05-08T10:15:42.465Z,3.70
2023-05-08T10:18:10.439Z,4.72
2023-05-08T10:20:40.476Z,4.30
2023-05-08T10:23:11.450Z,4.35
2023-05-08T10:25:43.733Z,5.00
2023-05-08T10:28:16.799Z,5.30
2023-05-08T10:30:47.631Z,3.80
2023-05-08T10:33:16.208Z,4.90
2023-05-08T10:35:43.038Z,6.22
2023-05-08T10:38:10.048Z,7.10
2023-05-08T10:40:37.914Z,7.05
2023-05-08T10:43:07.326Z,6.25
2023-05-08T10:45:34.592Z,5.45
2023-05-08T10:48:11.524Z,6.35
2023-05-08T10:50:56.698Z,7.60
2023-05-08T10:53:32.052Z,6.65
2023-05-08T10:55:59.155Z,6.28
2023-05-08T10:58:25.765Z,6.97
2023-05-08T11:00:52.264Z,7.53
2023-05-08T11:03:33.111Z,7.00
2023-05-08T11:06:00.915Z,6.70
2023-05-08T11:08:29.436Z,7.27
2023-05-08T11:11:02.178Z,7.85
2023-05-08T11:13:41.411Z,7.63
2023-05-08T11:16:10.156Z,6.72
2023-05-08T11:18:48.414Z,9.25
2023-05-08T11:21:21.776Z,7.88
2023-05-08T11:23:56.544Z,8.15
2023-05-08T11:26:38.789Z,6.22
2023-05-08T11:29:16.695Z,6.00
2023-05-08T11:31:50.780Z,6.25
2023-05-08T11:34:42.733Z,6.22
2023-05-08T11:37:17.282Z,6.40
2023-05-08T11:39:43.869Z,5.93
2023-05-08T11:42:25.713Z,5.65
2023-05-08T11:45:06.026Z,7.85
2023-05-08T11:47:38.004Z,6.70
2023-05-08T11:50:04.980Z,5.15
2023-05-08T11:52:33.073Z,5.57
2023-05-08T11:55:04.099Z,8.25
2023-05-08T11:57:32.384Z,6.10
2023-05-08T12:00:25.257Z,7.07
2023-05-08T12:02:51.957Z,5.80
2023-05-08T12:05:27.004Z,7.13
2023-05-08T12:07:53.597Z,6.35
2023-05-08T12:10:20.248Z,5.88
2023-05-08T12:12:47.130Z,5.57
2023-05-08T12:15:15.236Z,5.40
2023-05-08T12:17:42.953Z,6.78
2023-05-08T12:20:17.755Z,6.60
2023-05-08T12:22:52.875Z,6.25
2023-05-08T12:25:20.092Z,5.82
2023-05-08T12:27:46.968Z,5.65
2023-05-08T12:30:15.019Z,5.53
2023-05-08T12:32:42.931Z,5.72
2023-05-08T12:35:11.105Z,5.15
2023-05-08T12:37:37.993Z,4.13
2023-05-08T12:40:05.355Z,5.20
2023-05-08T12:42:51.034Z,5.57
2023-05-08T12:45:22.636Z,7.32
2023-05-08T12:47:50.139Z,5.18
2023-05-08T12:50:18.444Z,5.22
2023-05-08T12:55:26.047Z,4.38
2023-05-08T12:57:59.717Z,4.45
2023-05-08T13:00:26.338Z,4.85
2023-05-08T13:02:54.861Z,4.75
2023-05-08T13:05:22.680Z,5.35
2023-05-08T13:07:52.385Z,5.90
2023-05-08T13:10:21.416Z,5.60
2023-05-08T13:12:49.728Z,4.68
2023-05-08T13:15:16.385Z,5.05
2023-05-08T13:17:43.024Z,4.93
2023-05-08T13:20:11.494Z,5.20
2023-05-08T13:22:38.404Z,4.38
2023-05-08T13:25:05.945Z,4.75
2023-05-08T13:27:32.509Z,4.95
2023-05-08T13:29:59.086Z,6.28
2023-05-08T13:32:25.696Z,4.53
2023-05-08T13:34:54.108Z,4.35
2023-05-08T13:37:24.219Z,4.50
2023-05-08T13:39:50.789Z,5.50
2023-05-08T13:42:17.472Z,4.50
2023-05-08T13:44:44.079Z,4.82
2023-05-08T13:47:10.838Z,4.70
2023-05-08T13:49:37.501Z,5.60
2023-05-08T13:52:04.286Z,4.97
2023-05-08T13:54:30.888Z,4.45
2023-05-08T13:56:57.518Z,5.90
2023-05-08T13:59:24.128Z,5.68
2023-05-08T14:01:50.910Z,5.60
2023-05-08T14:04:17.633Z,5.80
2023-05-08T14:06:44.246Z,5.10
2023-05-08T14:09:10.878Z,4.65
2023-05-08T14:11:37.500Z,4.93
2023-05-08T14:14:04.091Z,4.95
2023-05-08T14:16:30.720Z,6.50
2023-05-08T14:18:57.312Z,5.35
2023-05-08T14:21:23.992Z,5.90
2023-05-08T14:23:50.729Z,4.97
2023-05-08T14:26:17.511Z,4.50
2023-05-08T14:28:44.130Z,4.72
2023-05-08T14:31:11.017Z,5.30
2023-05-08T14:33:37.660Z,5.53
2023-05-08T14:36:04.376Z,5.07
2023-05-08T14:38:31.210Z,4.63
2023-05-08T14:40:57.830Z,5.18
2023-05-08T14:43:24.418Z,5.10
2023-05-08T14:45:51.081Z,4.82
2023-05-08T14:48:17.782Z,4.93
2023-05-08T14:50:44.395Z,5.60
2023-05-08T14:53:11.138Z,5.07
2023-05-08T14:55:38.028Z,4.70
2023-05-08T14:58:04.961Z,5.18
2023-05-08T15:00:31.599Z,5.05
2023-05-08T15:02:58.331Z,4.50
2023-05-08T15:05:25.189Z,4.72
2023-05-08T15:07:52.153Z,4.43
2023-05-08T15:10:18.805Z,4.65
2023-05-08T15:12:45.409Z,4.80
2023-05-08T15:15:12.209Z,5.47
2023-05-08T15:17:41.491Z,4.53
2023-05-08T15:20:11.521Z,4.32
2023-05-08T15:22:38.233Z,3.72
2023-05-08T15:25:05.688Z,4.13
2023-05-08T15:27:32.448Z,4.60
2023-05-08T15:29:59.113Z,4.47
2023-05-08T15:32:25.779Z,4.40
2023-05-08T15:34:52.383Z,4.40
2023-05-08T15:37:18.967Z,4.47
2023-05-08T15:39:45.543Z,4.53
2023-05-08T15:42:12.164Z,13.05
2023-05-08T15:44:53.777Z,41.78
2023-05-08T15:47:23.347Z,21.80
2023-05-08T15:49:51.019Z,9.07
2023-05-08T15:52:19.659Z,8.30
2023-05-08T15:54:47.132Z,6.82
2023-05-08T15:57:13.891Z,8.10
2023-05-08T15:59:40.513Z,23.33
2023-05-08T16:02:07.926Z,5.50
2023-05-08T16:04:35.995Z,5.35
2023-05-08T16:07:02.711Z,5.18
2023-05-08T16:09:29.298Z,5.13
2023-05-08T16:11:56.010Z,5.78
2023-05-08T16:14:22.569Z,5.90
2023-05-08T16:16:49.155Z,6.07
2023-05-08T16:19:16.027Z,6.43
2023-05-08T16:21:42.623Z,5.75
2023-05-08T16:24:09.233Z,5.55
2023-05-08T16:26:35.838Z,4.70
2023-05-08T16:29:02.409Z,4.68
2023-05-08T16:31:29.193Z,3.58
2023-05-08T16:33:55.854Z,3.38
2023-05-08T16:36:22.431Z,2.83
2023-05-08T16:38:49.048Z,3.00
2023-05-08T16:41:15.601Z,2.97
2023-05-08T16:43:42.143Z,3.08
2023-05-08T16:46:08.832Z,3.70
2023-05-08T16:48:35.506Z,3.50
2023-05-08T16:51:02.133Z,3.10
2023-05-08T16:53:28.995Z,3.05
2023-05-08T16:55:55.743Z,3.00
2023-05-08T16:58:22.978Z,2.85
2023-05-08T17:00:49.855Z,2.60
2023-05-08T17:03:16.744Z,3.40
2023-05-08T17:05:43.447Z,3.63
2023-05-08T17:08:11.838Z,3.25
2023-05-08T17:10:39.514Z,3.35
2023-05-08T17:13:06.275Z,3.20
2023-05-08T17:15:33.029Z,3.67
2023-05-08T17:17:59.670Z,2.83
2023-05-08T17:20:26.445Z,2.90
2023-05-08T17:22:56.090Z,2.65
2023-05-08T17:25:22.723Z,2.67
2023-05-08T17:27:49.281Z,2.80
2023-05-08T17:30:17.027Z,3.13
2023-05-08T17:32:43.894Z,2.85
2023-05-08T17:35:10.570Z,3.17
2023-05-08T17:37:37.441Z,2.63
2023-05-08T17:40:04.305Z,2.63
2023-05-08T17:42:30.956Z,2.97
2023-05-08T17:44:57.516Z,2.00
2023-05-08T17:47:24.151Z,2.50
2023-05-08T17:49:50.932Z,2.90
2023-05-08T17:52:17.521Z,2.30
2023-05-08T17:54:44.082Z,3.10
2023-05-08T17:57:10.703Z,2.83
2023-05-08T17:59:37.275Z,2.78
2023-05-08T18:02:03.938Z,3.10
2023-05-08T18:04:30.770Z,2.85
2023-05-08T18:06:57.334Z,3.00
2023-05-08T18:09:23.968Z,2.65
2023-05-08T18:11:50.532Z,2.60
2023-05-08T18:14:17.095Z,2.88
2023-05-08T18:16:43.716Z,3.20
2023-05-08T18:19:10.316Z,2.50
2023-05-08T18:21:36.956Z,2.92
2023-05-08T18:24:03.846Z,2.95
2023-05-08T18:26:30.811Z,2.95
2023-05-08T18:28:57.556Z,3.00
2023-05-08T18:31:24.142Z,3.03
2023-05-08T18:33:50.756Z,2.95
2023-05-08T18:36:17.330Z,3.45
2023-05-08T18:38:43.996Z,3.50
2023-05-08T18:41:10.672Z,3.42
2023-05-08T18:43:37.253Z,3.58
2023-05-08T18:46:13.814Z,3.47
2023-05-08T18:48:41.185Z,3.33
2023-05-08T18:51:07.868Z,2.85
2023-05-08T18:53:38.175Z,3.00
2023-05-08T18:56:05.431Z,3.20
2023-05-08T18:58:32.118Z,3.17
2023-05-08T19:00:59.110Z,3.00
2023-05-08T19:03:26.236Z,2.60
2023-05-08T19:05:54.785Z,2.38
2023-05-08T19:10:47.858Z,2.65
2023-05-08T19:13:14.600Z,2.50
2023-05-08T19:15:41.199Z,2.50
2023-05-08T19:18:07.920Z,2.50
2023-05-08T19:20:34.572Z,2.60
2023-05-08T19:23:01.255Z,2.65
2023-05-08T19:25:27.911Z,2.60
2023-05-08T19:27:54.556Z,2.72
2023-05-08T19:30:21.124Z,2.78
2023-05-08T19:32:47.738Z,2.58
2023-05-08T19:35:14.301Z,2.70
2023-05-08T19:37:41.028Z,2.65
2023-05-08T19:40:08.209Z,3.00
2023-05-08T19:42:34.807Z,2.65
2023-05-08T19:45:01.501Z,2.88
2023-05-08T19:47:28.136Z,2.85
2023-05-08T19:49:54.748Z,3.10
2023-05-08T19:52:21.550Z,3.05
2023-05-08T19:54:49.015Z,3.20
2023-05-08T19:57:15.624Z,2.90
2023-05-08T19:59:42.231Z,3.20
2023-05-08T20:02:08.901Z,3.13
2023-05-08T20:04:51.832Z,2.75
2023-05-08T20:07:22.092Z,3.28
2023-05-08T20:09:48.646Z,3.20
2023-05-08T20:12:15.246Z,3.60
2023-05-08T20:14:41.858Z,3.05
2023-05-08T20:17:08.517Z,3.13
2023-05-08T20:19:35.535Z,3.00
2023-05-08T20:22:02.224Z,2.88
2023-05-08T20:24:28.891Z,3.25
2023-05-08T20:26:56.354Z,3.38
2023-05-08T20:29:24.062Z,3.45
2023-05-08T20:31:51.203Z,3.50
2023-05-08T20:34:20.431Z,3.30
2023-05-08T20:36:48.664Z,3.50
2023-05-08T20:39:15.277Z,3.70
2023-05-08T20:41:41.907Z,3.90
2023-05-08T20:44:08.465Z,3.70
2023-05-08T20:46:35.127Z,3.75
2023-05-08T20:49:03.848Z,3.70
2023-05-08T20:51:31.940Z,3.88
2023-05-08T20:53:58.680Z,3.78
2023-05-08T20:56:25.543Z,3.72
2023-05-08T20:58:52.186Z,4.50
2023-05-08T21:01:20.916Z,4.20
2023-05-08T21:03:48.111Z,4.20
2023-05-08T21:06:14.748Z,4.07
2023-05-08T21:08:41.431Z,4.03
2023-05-08T21:11:08.011Z,5.45
2023-05-08T21:13:34.565Z,4.65
2023-05-08T21:16:01.188Z,4.63
2023-05-08T21:18:27.812Z,4.85
2023-05-08T21:20:54.420Z,4.93
2023-05-08T21:23:21.308Z,4.75
2023-05-08T21:25:48.549Z,5.57
2023-05-08T21:28:16.396Z,5.70
2023-05-08T21:30:43.779Z,5.55
2023-05-08T21:33:11.620Z,5.15
2023-05-08T21:35:38.180Z,6.05
2023-05-08T21:38:05.757Z,6.10
2023-05-08T21:40:32.344Z,5.53
2023-05-08T21:43:00.124Z,5.57
2023-05-08T21:45:30.912Z,6.00
2023-05-08T21:47:58.232Z,5.38
2023-05-08T21:50:24.914Z,6.22
2023-05-08T21:52:53.388Z,5.72
2023-05-08T21:57:46.683Z,5.60
2023-05-08T22:00:13.857Z,6.13
2023-05-08T22:02:40.531Z,6.07
2023-05-08T22:05:07.636Z,6.20
2023-05-08T22:07:34.425Z,5.75
2023-05-08T22:10:01.079Z,6.10
2023-05-08T22:12:27.623Z,5.88
2023-05-08T22:14:54.193Z,6.07
2023-05-08T22:17:20.773Z,6.57
2023-05-08T22:19:47.322Z,5.50
2023-05-08T22:22:13.880Z,5.53
2023-05-08T22:24:40.592Z,5.28
2023-05-08T22:27:07.162Z,5.75
2023-05-08T22:29:33.749Z,4.72
2023-05-08T22:32:00.374Z,5.03
2023-05-08T22:34:26.958Z,4.95
2023-05-08T22:36:53.530Z,5.00
2023-05-08T22:39:20.107Z,5.32
2023-05-08T22:41:47.381Z,5.35
2023-05-08T22:44:13.938Z,5.60
2023-05-08T22:46:40.717Z,5.40
2023-05-08T22:49:07.424Z,5.13
2023-05-08T22:51:34.056Z,5.07
2023-05-08T22:54:00.785Z,5.00
2023-05-08T22:56:27.441Z,5.45
2023-05-08T22:58:56.903Z,4.78
2023-05-08T23:01:23.477Z,5.15
2023-05-08T23:03:56.632Z,5.65
2023-05-08T23:06:23.346Z,5.13
2023-05-08T23:08:49.925Z,4.88
2023-05-08T23:11:16.648Z,5.70
2023-05-08T23:13:43.244Z,5.18
2023-05-08T23:16:09.918Z,5.38
2023-05-08T23:18:36.536Z,5.32
2023-05-08T23:21:07.042Z,4.70
2023-05-08T23:23:34.379Z,5.90
2023-05-08T23:26:04.649Z,5.35
2023-05-08T23:28:33.197Z,4.88
2023-05-08T23:33:26.387Z,4.95
2023-05-08T23:35:56.169Z,5.70
2023-05-08T23:38:23.219Z,5.55
2023-05-08T23:40:49.979Z,5.20
2023-05-08T23:43:16.685Z,5.35
2023-05-08T23:45:43.291Z,5.47
2023-05-08T23:48:09.856Z,4.90
2023-05-08T23:50:36.469Z,5.28
2023-05-08T23:53:03.047Z,5.40
2023-05-08T23:55:30.069Z,5.22
2023-05-08T23:57:57.105Z,4.97
